sensor_id;sensor_type;location;lat;lon;timestamp;pressure;altitude;pressure_sealevel;temperature;humidity
49178;BME280;35016;55.674;37.468;2024-01-30T00:02:00;100098.66;;;-0.84;74.42
49178;BME280;35016;55.674;37.468;2024-01-30T00:04:27;100098.13;;;-0.88;74.42
49178;BME280;35016;55.674;37.468;2024-01-30T00:06:54;100114.78;;;-0.86;74.20
49178;BME280;35016;55.674;37.468;2024-01-30T00:09:21;100121.94;;;-0.86;74.21
49178;BME280;35016;55.674;37.468;2024-01-30T00:11:48;100116.28;;;-0.91;74.57
49178;BME280;35016;55.674;37.468;2024-01-30T00:14:15;100123.44;;;-0.84;74.34
49178;BME280;35016;55.674;37.468;2024-01-30T00:16:43;100124.28;;;-0.83;74.33
49178;BME280;35016;55.674;37.468;2024-01-30T00:19:10;100108.13;;;-0.82;74.51
49178;BME280;35016;55.674;37.468;2024-01-30T00:21:37;100106.13;;;-0.80;74.32
49178;BME280;35016;55.674;37.468;2024-01-30T00:24:04;100106.94;;;-0.79;74.18
49178;BME280;35016;55.674;37.468;2024-01-30T00:26:31;100114.75;;;-0.78;74.45
49178;BME280;35016;55.674;37.468;2024-01-30T00:28:59;100110.94;;;-0.75;74.32
49178;BME280;35016;55.674;37.468;2024-01-30T00:31:27;100117.25;;;-0.76;74.30
49178;BME280;35016;55.674;37.468;2024-01-30T00:33:54;100117.25;;;-0.76;74.57
49178;BME280;35016;55.674;37.468;2024-01-30T00:36:21;100111.09;;;-0.77;74.29
49178;BME280;35016;55.674;37.468;2024-01-30T00:38:48;100116.91;;;-0.73;74.21
49178;BME280;35016;55.674;37.468;2024-01-30T00:41:17;100111.59;;;-0.73;74.25
49178;BME280;35016;55.674;37.468;2024-01-30T00:43:44;100105.59;;;-0.75;74.31
49178;BME280;35016;55.674;37.468;2024-01-30T00:46:11;100089.63;;;-0.75;74.27
49178;BME280;35016;55.674;37.468;2024-01-30T00:48:39;100093.94;;;-0.74;74.60
49178;BME280;35016;55.674;37.468;2024-01-30T00:51:06;100091.78;;;-0.71;74.30
49178;BME280;35016;55.674;37.468;2024-01-30T00:53:33;100095.25;;;-0.70;74.21
49178;BME280;35016;55.674;37.468;2024-01-30T00:56:00;100106.56;;;-0.68;74.41
49178;BME280;35016;55.674;37.468;2024-01-30T00:58:28;100104.75;;;-0.68;74.31
49178;BME280;35016;55.674;37.468;2024-01-30T01:00:55;100108.88;;;-0.65;74.51
49178;BME280;35016;55.674;37.468;2024-01-30T01:03:22;100099.06;;;-0.65;74.55
49178;BME280;35016;55.674;37.468;2024-01-30T01:05:49;100109.53;;;-0.63;74.32
49178;BME280;35016;55.674;37.468;2024-01-30T01:08:16;100098.06;;;-0.64;74.35
49178;BME280;35016;55.674;37.468;2024-01-30T01:10:44;100100.72;;;-0.64;74.09
49178;BME280;35016;55.674;37.468;2024-01-30T01:13:11;100093.56;;;-0.63;74.08
49178;BME280;35016;55.674;37.468;2024-01-30T01:15:39;100097.06;;;-0.63;74.37
49178;BME280;35016;55.674;37.468;2024-01-30T01:18:06;100109.53;;;-0.63;74.16
49178;BME280;35016;55.674;37.468;2024-01-30T01:20:33;100077.94;;;-0.66;74.34
49178;BME280;35016;55.674;37.468;2024-01-30T01:23:00;100099.38;;;-0.59;74.06
49178;BME280;35016;55.674;37.468;2024-01-30T01:25:27;100092.06;;;-0.57;74.58
49178;BME280;35016;55.674;37.468;2024-01-30T01:27:55;100088.53;;;-0.58;74.17
49178;BME280;35016;55.674;37.468;2024-01-30T01:30:22;100097.41;;;-0.57;74.08
49178;BME280;35016;55.674;37.468;2024-01-30T01:32:49;100089.41;;;-0.57;74.15
49178;BME280;35016;55.674;37.468;2024-01-30T01:35:24;100075.41;;;-0.59;74.14
49178;BME280;35016;55.674;37.468;2024-01-30T01:37:53;100081.56;;;-0.59;74.06
49178;BME280;35016;55.674;37.468;2024-01-30T01:40:28;100081.41;;;-0.57;74.11
49178;BME280;35016;55.674;37.468;2024-01-30T01:42:55;100073.44;;;-0.57;73.96
49178;BME280;35016;55.674;37.468;2024-01-30T01:45:23;100084.72;;;-0.55;74.27
49178;BME280;35016;55.674;37.468;2024-01-30T01:47:53;100074.75;;;-0.53;74.08
49178;BME280;35016;55.674;37.468;2024-01-30T01:50:21;100069.59;;;-0.55;74.34
49178;BME280;35016;55.674;37.468;2024-01-30T01:52:50;100075.56;;;-0.53;74.34
49178;BME280;35016;55.674;37.468;2024-01-30T01:55:19;100069.06;;;-0.50;73.99
49178;BME280;35016;55.674;37.468;2024-01-30T01:57:53;100093.03;;;-0.50;73.98
49178;BME280;35016;55.674;37.468;2024-01-30T02:00:20;100082.19;;;-0.49;74.34
49178;BME280;35016;55.674;37.468;2024-01-30T02:02:47;100069.72;;;-0.48;74.31
49178;BME280;35016;55.674;37.468;2024-01-30T02:05:16;100066.41;;;-0.50;74.04
49178;BME280;35016;55.674;37.468;2024-01-30T02:07:43;100055.44;;;-0.55;74.20
49178;BME280;35016;55.674;37.468;2024-01-30T02:10:11;100057.69;;;-0.44;74.43
49178;BME280;35016;55.674;37.468;2024-01-30T02:12:40;100061.00;;;-0.42;74.11
49178;BME280;35016;55.674;37.468;2024-01-30T02:15:07;100057.53;;;-0.43;74.36
49178;BME280;35016;55.674;37.468;2024-01-30T02:17:40;100067.66;;;-0.38;73.94
49178;BME280;35016;55.674;37.468;2024-01-30T02:20:07;100076.28;;;-0.36;74.17
49178;BME280;35016;55.674;37.468;2024-01-30T02:22:36;100086.78;;;-0.35;74.29
49178;BME280;35016;55.674;37.468;2024-01-30T02:25:04;100070.78;;;-0.35;74.18
49178;BME280;35016;55.674;37.468;2024-01-30T02:27:31;100069.13;;;-0.36;73.97
49178;BME280;35016;55.674;37.468;2024-01-30T02:29:59;100069.13;;;-0.36;74.42
49178;BME280;35016;55.674;37.468;2024-01-30T02:32:27;100062.97;;;-0.36;74.35
49178;BME280;35016;55.674;37.468;2024-01-30T02:34:54;100064.63;;;-0.35;74.30
49178;BME280;35016;55.674;37.468;2024-01-30T02:37:21;100061.63;;;-0.32;74.24
49178;BME280;35016;55.674;37.468;2024-01-30T02:39:48;100071.28;;;-0.31;74.33
49178;BME280;35016;55.674;37.468;2024-01-30T02:42:15;100062.44;;;-0.32;74.07
49178;BME280;35016;55.674;37.468;2024-01-30T02:44:42;100067.78;;;-0.32;73.90
49178;BME280;35016;55.674;37.468;2024-01-30T02:47:09;100071.09;;;-0.29;74.05
49178;BME280;35016;55.674;37.468;2024-01-30T02:49:37;100077.94;;;-0.27;74.04
49178;BME280;35016;55.674;37.468;2024-01-30T02:52:04;100066.28;;;-0.26;74.21
49178;BME280;35016;55.674;37.468;2024-01-30T02:54:31;100062.13;;;-0.28;74.08
49178;BME280;35016;55.674;37.468;2024-01-30T02:56:58;100062.94;;;-0.28;73.92
49178;BME280;35016;55.674;37.468;2024-01-30T02:59:25;100058.28;;;-0.26;74.24
49178;BME280;35016;55.674;37.468;2024-01-30T03:01:52;100057.09;;;-0.23;74.37
49178;BME280;35016;55.674;37.468;2024-01-30T03:04:19;100057.75;;;-0.21;74.43
49178;BME280;35016;55.674;37.468;2024-01-30T03:06:47;100063.53;;;-0.18;74.02
49178;BME280;35016;55.674;37.468;2024-01-30T03:09:16;100073.03;;;-0.15;74.46
49178;BME280;35016;55.674;37.468;2024-01-30T03:11:44;100074.69;;;-0.14;74.34
49178;BME280;35016;55.674;37.468;2024-01-30T03:14:11;100079.19;;;-0.15;74.00
49178;BME280;35016;55.674;37.468;2024-01-30T03:16:38;100075.50;;;-0.14;73.90
49178;BME280;35016;55.674;37.468;2024-01-30T03:19:06;100083.50;;;-0.14;74.06
49178;BME280;35016;55.674;37.468;2024-01-30T03:21:35;100077.00;;;-0.11;73.92
49178;BME280;35016;55.674;37.468;2024-01-30T03:24:02;100079.84;;;-0.13;74.04
49178;BME280;35016;55.674;37.468;2024-01-30T03:26:31;100087.19;;;-0.15;74.34
49178;BME280;35016;55.674;37.468;2024-01-30T03:28:58;100082.50;;;-0.13;74.38
49178;BME280;35016;55.674;37.468;2024-01-30T03:31:25;100080.31;;;-0.09;74.21
49178;BME280;35016;55.674;37.468;2024-01-30T03:33:52;100088.13;;;-0.08;74.19
49178;BME280;35016;55.674;37.468;2024-01-30T03:36:20;100092.28;;;-0.05;74.29
49178;BME280;35016;55.674;37.468;2024-01-30T03:38:47;100079.31;;;-0.08;74.17
49178;BME280;35016;55.674;37.468;2024-01-30T03:41:14;100087.13;;;-0.07;73.97
49178;BME280;35016;55.674;37.468;2024-01-30T03:43:41;100060.94;;;-0.03;74.13
49178;BME280;35016;55.674;37.468;2024-01-30T03:46:09;100059.75;;;-0.01;73.90
49178;BME280;35016;55.674;37.468;2024-01-30T03:48:36;100063.28;;;0.00;74.28
49178;BME280;35016;55.674;37.468;2024-01-30T03:51:03;100076.59;;;0.00;73.95
49178;BME280;35016;55.674;37.468;2024-01-30T03:53:31;100090.41;;;0.04;74.01
49178;BME280;35016;55.674;37.468;2024-01-30T03:55:58;100090.22;;;0.05;74.25
49178;BME280;35016;55.674;37.468;2024-01-30T03:58:25;100092.53;;;0.08;73.97
49178;BME280;35016;55.674;37.468;2024-01-30T04:00:52;100092.53;;;0.08;74.15
49178;BME280;35016;55.674;37.468;2024-01-30T04:03:19;100102.19;;;0.09;74.25
49178;BME280;35016;55.674;37.468;2024-01-30T04:05:46;100090.53;;;0.10;73.91
49178;BME280;35016;55.674;37.468;2024-01-30T04:08:13;100111.84;;;0.10;74.23
49178;BME280;35016;55.674;37.468;2024-01-30T04:10:40;100090.53;;;0.10;74.25
49178;BME280;35016;55.674;37.468;2024-01-30T04:13:08;100084.38;;;0.10;74.09
49178;BME280;35016;55.674;37.468;2024-01-30T04:15:38;100093.00;;;0.12;74.51
49178;BME280;35016;55.674;37.468;2024-01-30T04:18:06;100096.31;;;0.14;73.90
49178;BME280;35016;55.674;37.468;2024-01-30T04:20:33;100097.81;;;0.16;74.02
49178;BME280;35016;55.674;37.468;2024-01-30T04:23:00;100112.63;;;0.19;74.30
49178;BME280;35016;55.674;37.468;2024-01-30T04:25:27;100089.63;;;0.18;74.26
49178;BME280;35016;55.674;37.468;2024-01-30T04:27:55;100107.28;;;0.19;73.88
49178;BME280;35016;55.674;37.468;2024-01-30T04:30:22;100117.41;;;0.23;73.96
49178;BME280;35016;55.674;37.468;2024-01-30T04:32:49;100098.56;;;0.25;74.34
49178;BME280;35016;55.674;37.468;2024-01-30T04:35:16;100097.38;;;0.27;74.27
49178;BME280;35016;55.674;37.468;2024-01-30T04:37:43;100083.41;;;0.25;74.04
49178;BME280;35016;55.674;37.468;2024-01-30T04:40:11;100091.72;;;0.30;74.21
49178;BME280;35016;55.674;37.468;2024-01-30T04:42:38;100090.88;;;0.30;74.34
49178;BME280;35016;55.674;37.468;2024-01-30T04:45:05;100084.72;;;0.29;73.99
49178;BME280;35016;55.674;37.468;2024-01-30T04:47:33;100105.72;;;0.33;73.97
49178;BME280;35016;55.674;37.468;2024-01-30T04:50:01;100099.34;;;0.34;74.02
49178;BME280;35016;55.674;37.468;2024-01-30T04:52:30;100083.72;;;0.30;74.37
49178;BME280;35016;55.674;37.468;2024-01-30T04:54:59;100088.50;;;0.35;74.10
49178;BME280;35016;55.674;37.468;2024-01-30T04:57:27;100084.38;;;0.33;74.34
49178;BME280;35016;55.674;37.468;2024-01-30T04:59:55;100101.66;;;0.37;73.92
49178;BME280;35016;55.674;37.468;2024-01-30T05:02:22;100119.50;;;0.36;74.07
49178;BME280;35016;55.674;37.468;2024-01-30T05:04:49;100084.66;;;0.38;74.28
49178;BME280;35016;55.674;37.468;2024-01-30T05:07:16;100108.47;;;0.39;73.95
49178;BME280;35016;55.674;37.468;2024-01-30T05:09:44;100098.47;;;0.41;73.85
49178;BME280;35016;55.674;37.468;2024-01-30T05:12:11;100097.44;;;0.42;74.05
49178;BME280;35016;55.674;37.468;2024-01-30T05:14:38;100098.94;;;0.45;74.05
49178;BME280;35016;55.674;37.468;2024-01-30T05:17:05;100087.78;;;0.41;73.92
49178;BME280;35016;55.674;37.468;2024-01-30T05:19:33;100103.25;;;0.46;74.24
49178;BME280;35016;55.674;37.468;2024-01-30T05:22:00;100090.56;;;0.48;74.27
49178;BME280;35016;55.674;37.468;2024-01-30T05:24:27;100088.72;;;0.48;74.03
49178;BME280;35016;55.674;37.468;2024-01-30T05:26:55;100106.22;;;0.51;73.98
49178;BME280;35016;55.674;37.468;2024-01-30T05:29:22;100092.69;;;0.52;73.78
49178;BME280;35016;55.674;37.468;2024-01-30T05:31:49;100108.50;;;0.54;73.94
49178;BME280;35016;55.674;37.468;2024-01-30T05:34:16;100101.97;;;0.56;74.17
49178;BME280;35016;55.674;37.468;2024-01-30T05:36:43;100100.97;;;0.57;74.07
49178;BME280;35016;55.674;37.468;2024-01-30T05:39:10;100103.50;;;0.59;74.37
49178;BME280;35016;55.674;37.468;2024-01-30T05:41:38;100085.81;;;0.58;73.89
49178;BME280;35016;55.674;37.468;2024-01-30T05:44:05;100110.50;;;0.60;74.10
49178;BME280;35016;55.674;37.468;2024-01-30T05:46:33;100106.63;;;0.63;74.00
49178;BME280;35016;55.674;37.468;2024-01-30T05:49:00;100082.31;;;0.57;74.08
49178;BME280;35016;55.674;37.468;2024-01-30T05:51:27;100090.44;;;0.64;73.72
49178;BME280;35016;55.674;37.468;2024-01-30T05:53:55;100102.94;;;0.64;74.07
49178;BME280;35016;55.674;37.468;2024-01-30T05:56:22;100102.94;;;0.64;73.85
49178;BME280;35016;55.674;37.468;2024-01-30T05:58:49;100116.13;;;0.65;73.93
49178;BME280;35016;55.674;37.468;2024-01-30T06:01:17;100109.59;;;0.68;73.81
49178;BME280;35016;55.674;37.468;2024-01-30T06:03:44;100104.44;;;0.66;73.74
49178;BME280;35016;55.674;37.468;2024-01-30T06:06:11;100112.25;;;0.68;74.21
49178;BME280;35016;55.674;37.468;2024-01-30T06:08:38;100115.38;;;0.71;73.95
49178;BME280;35016;55.674;37.468;2024-01-30T06:11:05;100152.75;;;0.71;74.16
49178;BME280;35016;55.674;37.468;2024-01-30T06:13:33;100104.34;;;0.74;74.22
49178;BME280;35016;55.674;37.468;2024-01-30T06:16:00;100123.03;;;0.74;74.43
49178;BME280;35016;55.674;37.468;2024-01-30T06:18:27;100131.03;;;0.74;74.40
49178;BME280;35016;55.674;37.468;2024-01-30T06:20:57;100122.19;;;0.74;74.15
49178;BME280;35016;55.674;37.468;2024-01-30T06:23:24;100133.53;;;0.76;73.94
49178;BME280;35016;55.674;37.468;2024-01-30T06:25:51;100119.81;;;0.79;73.96
49178;BME280;35016;55.674;37.468;2024-01-30T06:28:18;100118.97;;;0.78;74.33
49178;BME280;35016;55.674;37.468;2024-01-30T06:30:45;100140.44;;;0.85;74.35
49178;BME280;35016;55.674;37.468;2024-01-30T06:33:12;100142.78;;;0.88;74.33
49178;BME280;35016;55.674;37.468;2024-01-30T06:35:40;100153.47;;;0.88;73.90
49178;BME280;35016;55.674;37.468;2024-01-30T06:38:10;100141.22;;;0.93;73.92
49178;BME280;35016;55.674;37.468;2024-01-30T06:40:38;100151.34;;;0.98;73.74
49178;BME280;35016;55.674;37.468;2024-01-30T06:43:05;100136.97;;;0.99;74.34
49178;BME280;35016;55.674;37.468;2024-01-30T06:45:32;100139.75;;;1.06;74.01
49178;BME280;35016;55.674;37.468;2024-01-30T06:48:00;100147.56;;;1.07;73.73
49178;BME280;35016;55.674;37.468;2024-01-30T06:50:27;100143.91;;;1.08;74.25
49178;BME280;35016;55.674;37.468;2024-01-30T06:52:54;100142.41;;;1.06;73.64
49178;BME280;35016;55.674;37.468;2024-01-30T06:55:22;100140.41;;;1.08;73.85
49178;BME280;35016;55.674;37.468;2024-01-30T06:57:49;100152.75;;;1.09;73.94
49178;BME280;35016;55.674;37.468;2024-01-30T07:00:17;100148.78;;;1.05;73.95
49178;BME280;35016;55.674;37.468;2024-01-30T07:02:46;100148.59;;;1.06;74.00
49178;BME280;35016;55.674;37.468;2024-01-30T07:05:13;100140.56;;;1.06;73.89
49178;BME280;35016;55.674;37.468;2024-01-30T07:07:41;100152.91;;;1.07;73.74
49178;BME280;35016;55.674;37.468;2024-01-30T07:10:08;100143.06;;;1.08;74.19
49178;BME280;35016;55.674;37.468;2024-01-30T07:12:36;100159.56;;;1.11;73.65
49178;BME280;35016;55.674;37.468;2024-01-30T07:15:03;100168.22;;;1.13;73.83
49178;BME280;35016;55.674;37.468;2024-01-30T07:17:31;100167.75;;;1.10;73.69
49178;BME280;35016;55.674;37.468;2024-01-30T07:19:58;100166.91;;;1.09;73.79
49178;BME280;35016;55.674;37.468;2024-01-30T07:22:25;100162.88;;;1.13;74.04
49178;BME280;35016;55.674;37.468;2024-01-30T07:24:52;100162.69;;;1.15;73.78
49178;BME280;35016;55.674;37.468;2024-01-30T07:27:19;100174.88;;;1.17;74.02
49178;BME280;35016;55.674;37.468;2024-01-30T07:29:46;100197.53;;;1.21;73.68
49178;BME280;35016;55.674;37.468;2024-01-30T07:32:13;100167.78;;;1.24;73.97
49178;BME280;35016;55.674;37.468;2024-01-30T07:34:40;100170.09;;;1.28;73.73
49178;BME280;35016;55.674;37.468;2024-01-30T07:37:24;100180.22;;;1.32;73.37
49178;BME280;35016;55.674;37.468;2024-01-30T07:39:52;100177.19;;;1.35;73.78
49178;BME280;35016;55.674;37.468;2024-01-30T07:42:19;100171.66;;;1.37;73.54
49178;BME280;35016;55.674;37.468;2024-01-30T07:44:46;100168.16;;;1.36;73.89
49178;BME280;35016;55.674;37.468;2024-01-30T07:47:13;100174.13;;;1.38;73.90
49178;BME280;35016;55.674;37.468;2024-01-30T07:49:40;100182.16;;;1.38;73.99
49178;BME280;35016;55.674;37.468;2024-01-30T07:52:07;100183.44;;;1.42;73.88
49178;BME280;35016;55.674;37.468;2024-01-30T07:54:34;100188.59;;;1.44;73.75
49178;BME280;35016;55.674;37.468;2024-01-30T07:57:01;100201.44;;;1.48;73.70
49178;BME280;35016;55.674;37.468;2024-01-30T07:59:29;100191.41;;;1.50;73.48
49178;BME280;35016;55.674;37.468;2024-01-30T08:01:56;100183.28;;;1.59;73.50
49178;BME280;35016;55.674;37.468;2024-01-30T08:04:23;100177.38;;;1.63;73.39
49178;BME280;35016;55.674;37.468;2024-01-30T08:06:50;100192.22;;;1.66;73.23
49178;BME280;35016;55.674;37.468;2024-01-30T08:09:18;100174.34;;;1.66;73.61
49178;BME280;35016;55.674;37.468;2024-01-30T08:11:45;100188.53;;;1.67;73.41
49178;BME280;35016;55.674;37.468;2024-01-30T08:14:12;100172.31;;;1.68;73.38
49178;BME280;35016;55.674;37.468;2024-01-30T08:16:40;100166.94;;;1.68;73.32
49178;BME280;35016;55.674;37.468;2024-01-30T08:19:07;100177.28;;;1.71;73.48
49178;BME280;35016;55.674;37.468;2024-01-30T08:21:35;100171.94;;;1.71;73.31
49178;BME280;35016;55.674;37.468;2024-01-30T08:24:06;100173.25;;;1.75;73.24
49178;BME280;35016;55.674;37.468;2024-01-30T08:26:34;100173.44;;;1.74;73.26
49178;BME280;35016;55.674;37.468;2024-01-30T08:29:02;100179.41;;;1.76;73.44
49178;BME280;35016;55.674;37.468;2024-01-30T08:31:29;100162.06;;;1.72;73.34
49178;BME280;35016;55.674;37.468;2024-01-30T08:33:57;100176.75;;;1.76;72.88
49178;BME280;35016;55.674;37.468;2024-01-30T08:36:24;100177.38;;;1.78;73.06
49178;BME280;35016;55.674;37.468;2024-01-30T08:38:52;100164.03;;;1.78;73.16
49178;BME280;35016;55.674;37.468;2024-01-30T08:41:25;100165.22;;;1.75;73.19
49178;BME280;35016;55.674;37.468;2024-01-30T08:43:52;100166.88;;;1.76;73.11
49178;BME280;35016;55.674;37.468;2024-01-30T08:46:20;100171.59;;;1.74;73.43
49178;BME280;35016;55.674;37.468;2024-01-30T08:48:47;100168.91;;;1.74;73.01
49178;BME280;35016;55.674;37.468;2024-01-30T08:51:15;100168.91;;;1.74;73.31
49178;BME280;35016;55.674;37.468;2024-01-30T08:53:42;100168.72;;;1.76;73.28
49178;BME280;35016;55.674;37.468;2024-01-30T08:56:10;100173.69;;;1.79;72.79
49178;BME280;35016;55.674;37.468;2024-01-30T08:58:40;100156.19;;;1.76;72.98
49178;BME280;35016;55.674;37.468;2024-01-30T09:01:07;100164.84;;;1.78;73.28
49178;BME280;35016;55.674;37.468;2024-01-30T09:03:34;100173.88;;;1.77;72.99
49178;BME280;35016;55.674;37.468;2024-01-30T09:06:08;100173.59;;;1.72;72.87
49178;BME280;35016;55.674;37.468;2024-01-30T09:08:35;100180.78;;;1.72;72.96
49178;BME280;35016;55.674;37.468;2024-01-30T09:11:13;100175.44;;;1.72;72.96
49178;BME280;35016;55.674;37.468;2024-01-30T09:13:40;100166.31;;;1.66;72.89
49178;BME280;35016;55.674;37.468;2024-01-30T09:16:07;100163.06;;;1.71;72.99
49178;BME280;35016;55.674;37.468;2024-01-30T09:18:35;100158.03;;;1.76;73.42
49178;BME280;35016;55.674;37.468;2024-01-30T09:21:02;100166.13;;;1.68;73.17
49178;BME280;35016;55.674;37.468;2024-01-30T09:23:39;100179.03;;;1.79;72.87
49178;BME280;35016;55.674;37.468;2024-01-30T09:26:07;100178.03;;;1.80;73.28
49178;BME280;35016;55.674;37.468;2024-01-30T09:28:34;100189.38;;;1.82;73.18
49178;BME280;35016;55.674;37.468;2024-01-30T09:31:01;100170.84;;;1.80;73.05
49178;BME280;35016;55.674;37.468;2024-01-30T09:33:29;100171.28;;;1.84;73.14
49178;BME280;35016;55.674;37.468;2024-01-30T09:35:56;100165.31;;;1.82;73.04
49178;BME280;35016;55.674;37.468;2024-01-30T09:38:24;100159.13;;;1.81;72.91
49178;BME280;35016;55.674;37.468;2024-01-30T09:40:54;100155.25;;;1.84;72.97
49178;BME280;35016;55.674;37.468;2024-01-30T09:43:23;100165.38;;;1.89;73.02
49178;BME280;35016;55.674;37.468;2024-01-30T09:45:53;100164.81;;;1.93;73.26
49178;BME280;35016;55.674;37.468;2024-01-30T09:48:21;100156.22;;;1.98;73.04
49178;BME280;35016;55.674;37.468;2024-01-30T09:50:50;100160.38;;;2.00;72.89
49178;BME280;35016;55.674;37.468;2024-01-30T09:53:18;100162.03;;;2.01;72.93
49178;BME280;35016;55.674;37.468;2024-01-30T09:55:45;100159.19;;;2.03;72.74
49178;BME280;35016;55.674;37.468;2024-01-30T09:58:13;100151.16;;;2.03;72.98
49178;BME280;35016;55.674;37.468;2024-01-30T10:00:40;100166.34;;;2.02;72.63
49178;BME280;35016;55.674;37.468;2024-01-30T10:03:09;100152.09;;;1.95;72.71
49178;BME280;35016;55.674;37.468;2024-01-30T10:05:36;100152.47;;;1.92;73.05
49178;BME280;35016;55.674;37.468;2024-01-30T10:08:07;100161.13;;;1.94;72.92
49178;BME280;35016;55.674;37.468;2024-01-30T10:10:37;100164.81;;;1.93;72.96
49178;BME280;35016;55.674;37.468;2024-01-30T10:13:04;100165.44;;;1.95;72.94
49178;BME280;35016;55.674;37.468;2024-01-30T10:15:32;100151.25;;;1.95;72.71
49178;BME280;35016;55.674;37.468;2024-01-30T10:18:05;100149.16;;;1.90;72.69
49178;BME280;35016;55.674;37.468;2024-01-30T10:20:35;100154.50;;;1.90;72.78
49178;BME280;35016;55.674;37.468;2024-01-30T10:23:03;100154.50;;;1.90;72.85
49178;BME280;35016;55.674;37.468;2024-01-30T10:25:31;100155.50;;;1.89;72.89
49178;BME280;35016;55.674;37.468;2024-01-30T10:27:59;100145.00;;;1.88;72.90
49178;BME280;35016;55.674;37.468;2024-01-30T10:30:27;100153.09;;;1.94;72.90
49178;BME280;35016;55.674;37.468;2024-01-30T10:32:54;100154.19;;;2.00;73.17
49178;BME280;35016;55.674;37.468;2024-01-30T10:35:22;100147.53;;;2.10;72.95
49178;BME280;35016;55.674;37.468;2024-01-30T10:37:49;100138.94;;;2.15;72.67
49178;BME280;35016;55.674;37.468;2024-01-30T10:40:16;100148.06;;;2.21;72.45
49178;BME280;35016;55.674;37.468;2024-01-30T10:42:45;100153.22;;;2.22;72.43
49178;BME280;35016;55.674;37.468;2024-01-30T10:45:13;100171.50;;;2.18;72.45
49178;BME280;35016;55.674;37.468;2024-01-30T10:47:50;100162.66;;;2.18;72.40
49178;BME280;35016;55.674;37.468;2024-01-30T10:50:18;100153.16;;;2.15;72.34
49178;BME280;35016;55.674;37.468;2024-01-30T10:52:47;100168.56;;;2.13;72.44
49178;BME280;35016;55.674;37.468;2024-01-30T10:55:15;100150.59;;;2.07;72.76
49178;BME280;35016;55.674;37.468;2024-01-30T10:57:43;100169.50;;;2.06;72.61
49178;BME280;35016;55.674;37.468;2024-01-30T11:00:12;100171.69;;;2.02;72.60
49178;BME280;35016;55.674;37.468;2024-01-30T11:02:45;100168.56;;;1.99;72.64
49178;BME280;35016;55.674;37.468;2024-01-30T11:05:23;100144.69;;;1.97;72.59
49178;BME280;35016;55.674;37.468;2024-01-30T11:07:50;100158.72;;;1.99;72.73
49178;BME280;35016;55.674;37.468;2024-01-30T11:10:18;100172.38;;;2.04;72.72
49178;BME280;35016;55.674;37.468;2024-01-30T11:12:46;100168.50;;;2.07;72.31
49178;BME280;35016;55.674;37.468;2024-01-30T11:15:16;100149.97;;;2.05;72.52
49178;BME280;35016;55.674;37.468;2024-01-30T11:17:45;100165.19;;;2.05;72.64
49178;BME280;35016;55.674;37.468;2024-01-30T11:20:25;100159.63;;;2.06;72.24
49178;BME280;35016;55.674;37.468;2024-01-30T11:22:54;100164.63;;;2.09;72.64
49178;BME280;35016;55.674;37.468;2024-01-30T11:25:28;100167.28;;;2.09;72.30
49178;BME280;35016;55.674;37.468;2024-01-30T11:27:58;100159.06;;;2.11;72.52
49178;BME280;35016;55.674;37.468;2024-01-30T11:30:29;100147.53;;;2.10;72.21
49178;BME280;35016;55.674;37.468;2024-01-30T11:32:58;100155.38;;;2.12;72.54
49178;BME280;35016;55.674;37.468;2024-01-30T11:35:27;100158.06;;;2.12;72.52
49178;BME280;35016;55.674;37.468;2024-01-30T11:37:57;100154.16;;;2.14;72.52
49178;BME280;35016;55.674;37.468;2024-01-30T11:40:28;100160.16;;;2.16;72.45
49178;BME280;35016;55.674;37.468;2024-01-30T11:42:58;100174.81;;;2.21;72.28
49178;BME280;35016;55.674;37.468;2024-01-30T11:48:31;100180.91;;;2.14;72.06
49178;BME280;35016;55.674;37.468;2024-01-30T11:51:19;100180.47;;;2.11;72.39
49178;BME280;35016;55.674;37.468;2024-01-30T11:53:49;100174.38;;;2.02;72.77
49178;BME280;35016;55.674;37.468;2024-01-30T11:56:16;100192.75;;;2.05;72.52
49178;BME280;35016;55.674;37.468;2024-01-30T11:58:44;100192.94;;;2.04;72.85
49178;BME280;35016;55.674;37.468;2024-01-30T12:01:11;100190.44;;;2.02;72.36
49178;BME280;35016;55.674;37.468;2024-01-30T12:03:38;100202.34;;;2.00;72.63
49178;BME280;35016;55.674;37.468;2024-01-30T12:06:06;100211.38;;;1.99;72.60
49178;BME280;35016;55.674;37.468;2024-01-30T12:08:33;100199.00;;;1.98;72.79
49178;BME280;35016;55.674;37.468;2024-01-30T12:11:00;100193.84;;;1.96;72.80
49178;BME280;35016;55.674;37.468;2024-01-30T12:13:32;100200.22;;;1.95;72.71
49178;BME280;35016;55.674;37.468;2024-01-30T12:16:00;100196.44;;;1.90;72.40
49178;BME280;35016;55.674;37.468;2024-01-30T12:18:28;100197.47;;;1.89;72.67
49178;BME280;35016;55.674;37.468;2024-01-30T12:20:59;100195.63;;;1.89;72.78
49178;BME280;35016;55.674;37.468;2024-01-30T12:23:28;100202.00;;;1.88;72.62
49178;BME280;35016;55.674;37.468;2024-01-30T12:25:56;100205.03;;;1.85;72.60
49178;BME280;35016;55.674;37.468;2024-01-30T12:28:24;100186.25;;;1.78;72.69
49178;BME280;35016;55.674;37.468;2024-01-30T12:30:55;100197.84;;;1.85;72.71
49178;BME280;35016;55.674;37.468;2024-01-30T12:33:26;100206.88;;;1.84;72.57
49178;BME280;35016;55.674;37.468;2024-01-30T12:35:54;100192.03;;;1.82;72.65
49178;BME280;35016;55.674;37.468;2024-01-30T12:38:29;100211.78;;;1.81;72.44
49178;BME280;35016;55.674;37.468;2024-01-30T12:40:57;100210.75;;;1.82;72.84
49178;BME280;35016;55.674;37.468;2024-01-30T12:43:25;100211.59;;;1.82;72.94
49178;BME280;35016;55.674;37.468;2024-01-30T12:46:05;100211.22;;;1.85;73.20
49178;BME280;35016;55.674;37.468;2024-01-30T12:48:33;100197.66;;;1.87;72.84
49178;BME280;35016;55.674;37.468;2024-01-30T12:51:01;100203.66;;;1.89;72.98
49178;BME280;35016;55.674;37.468;2024-01-30T12:53:28;100197.28;;;1.90;73.13
49178;BME280;35016;55.674;37.468;2024-01-30T12:56:33;100192.38;;;1.94;72.65